Belpre, Kansas
Current Conditions -  °F | °C
As of 4:35 AM on Friday 24 Oct 2014 (Local Time) from KPTT Reporting Station
Haze Haze  
Wind Chill: 55°   Ceiling: Unl
Heat Index: 55°   Visibility: 2mi
Dew Point: 54°   Wind: 5mph
Humidity: 94%   Direction: 190°S
Pressure: 30.06"   Gusts: NA
Location:  37.95°N, 99.1°W
Report Text: KPTT 240935Z AUTO 19004KT 2SM BR CLR 13/12 A3006 RMK AO2
Loading
Personal Weather Stations






























Interactive Weather Map
Tropical Storm Tracking
New forecast layout! Learn more

10-Day Weather Forecast

Advertisements
Track Severe Weather on mobile